Aviation Digital Data Service (ADDS)

Output produced by TAFs form (1931 UTC 24 May 2016)
found at http://aviationweather.gov/adds/tafs/
 
KTEX 241720Z 2418/2518 20012G19KT P6SM SCT140 
     FM242200 19015G25KT P6SM SCT120 SCT150 
     FM250300 20010KT P6SM SCT250 
     FM250800 15005KT P6SM SCT250